map of NGB home
NGB - Airport
Location
City:  Ningbo, Zhejiang, China
Name:Lishe International Airport
ICAO:ZSNB
IATA:NGB

Details
Type:Airport (Aerodrome, Airfield)
Use:Public/Civil, International (customs port of entry)
Latitude:29°50'N (29.827)
Longitude:121°28'E (121.463)
Elevation:13 ft (4 m)
Variation:5.69°W (WMM2015 magnetic declination)
-0.08° annual change
Runways:1
Longest:10499 × 148 ft (3200 × 45 m), paved

Time
Time Zone:UTC+8
Local Time:

Weather
METAR:ZSNB 162200Z VRB01MPS 3500 BR NSC 00/M00 Q1028 BECMG TL2300 2500
TAF:ZSNB 161926Z 1700/1724 35004MPS 5000 BR SCT030 TX08/1706Z TNM01/21Z

Related Locations
Nearby:
Farthest:UZU: 12418 mi / 19984 km
Curuzú Cuatiá, W, AR

Find:

   beyond  
but within

Other Information
Maps:
NOTAMs:
Links:
Sources:

  
  • flag of China
  

Airport Diagram

Airport diagram for NGB

Airport diagram PDF

Sectional Chart

Flight Planning
at skyvector.com

Satellite Image

Google Maps Satellite view

 

Copyright © 2004-2019 Karl L. Swartz. All rights reserved.
The Great Circle Mapper name and logo are trademarks of the Great Circle Mapper.
All other trademarks mentioned herein belong to their respective owners.
Please see credits for attibutions and further copyright information.

  Follow gcmap on Facebook Follow gcmap on Twitter Follow gcmap on Google+ GCmap on LinkedIn

hCard Microformat

Geo Microformat